sensor_id;sensor_type;location;lat;lon;timestamp;temperature;humidity
67641;SHT31;54434;50.096;20.082;2022-12-18T00:00:21;-3.20;82.35
67641;SHT31;54434;50.096;20.082;2022-12-18T00:03:23;-3.20;82.39
67641;SHT31;54434;50.096;20.082;2022-12-18T00:05:59;-3.21;82.47
67641;SHT31;54434;50.096;20.082;2022-12-18T00:08:35;-3.20;82.40
67641;SHT31;54434;50.096;20.082;2022-12-18T00:11:14;-3.21;82.30
67641;SHT31;54434;50.096;20.082;2022-12-18T00:13:53;-3.24;82.25
67641;SHT31;54434;50.096;20.082;2022-12-18T00:16:32;-3.21;82.30
67641;SHT31;54434;50.096;20.082;2022-12-18T00:19:10;-3.19;82.30
67641;SHT31;54434;50.096;20.082;2022-12-18T00:21:46;-3.18;82.30
67641;SHT31;54434;50.096;20.082;2022-12-18T00:24:23;-3.19;82.30
67641;SHT31;54434;50.096;20.082;2022-12-18T00:26:59;-3.19;82.31
67641;SHT31;54434;50.096;20.082;2022-12-18T00:29:35;-3.19;82.31
67641;SHT31;54434;50.096;20.082;2022-12-18T00:32:12;-3.18;82.31
67641;SHT31;54434;50.096;20.082;2022-12-18T00:34:49;-3.18;82.20
67641;SHT31;54434;50.096;20.082;2022-12-18T00:37:25;-3.17;82.09
67641;SHT31;54434;50.096;20.082;2022-12-18T00:40:01;-3.17;82.08
67641;SHT31;54434;50.096;20.082;2022-12-18T00:42:39;-3.16;82.10
67641;SHT31;54434;50.096;20.082;2022-12-18T00:45:31;-3.15;82.07
67641;SHT31;54434;50.096;20.082;2022-12-18T00:48:07;-3.13;82.09
67641;SHT31;54434;50.096;20.082;2022-12-18T00:50:43;-3.13;82.10
67641;SHT31;54434;50.096;20.082;2022-12-18T00:53:21;-3.13;82.10
67641;SHT31;54434;50.096;20.082;2022-12-18T00:55:57;-3.12;82.10
67641;SHT31;54434;50.096;20.082;2022-12-18T00:58:33;-3.12;82.11
67641;SHT31;54434;50.096;20.082;2022-12-18T01:01:09;-3.12;82.06
67641;SHT31;54434;50.096;20.082;2022-12-18T01:03:46;-3.14;81.75
67641;SHT31;54434;50.096;20.082;2022-12-18T01:06:24;-3.14;81.70
67641;SHT31;54434;50.096;20.082;2022-12-18T01:09:00;-3.13;81.53
67641;SHT31;54434;50.096;20.082;2022-12-18T01:11:39;-3.17;80.95
67641;SHT31;54434;50.096;20.082;2022-12-18T01:14:15;-3.18;80.84
67641;SHT31;54434;50.096;20.082;2022-12-18T01:16:51;-3.18;80.91
67641;SHT31;54434;50.096;20.082;2022-12-18T01:19:27;-3.20;80.69
67641;SHT31;54434;50.096;20.082;2022-12-18T01:22:03;-3.23;80.70
67641;SHT31;54434;50.096;20.082;2022-12-18T01:24:39;-3.27;80.61
67641;SHT31;54434;50.096;20.082;2022-12-18T01:27:15;-3.30;80.57
67641;SHT31;54434;50.096;20.082;2022-12-18T01:29:51;-3.32;80.52
67641;SHT31;54434;50.096;20.082;2022-12-18T01:32:30;-3.34;80.37
67641;SHT31;54434;50.096;20.082;2022-12-18T01:35:08;-3.35;80.27
67641;SHT31;54434;50.096;20.082;2022-12-18T01:37:44;-3.38;80.20
67641;SHT31;54434;50.096;20.082;2022-12-18T01:40:20;-3.39;80.30
67641;SHT31;54434;50.096;20.082;2022-12-18T01:42:56;-3.39;80.33
67641;SHT31;54434;50.096;20.082;2022-12-18T01:45:32;-3.39;80.30
67641;SHT31;54434;50.096;20.082;2022-12-18T01:48:08;-3.39;80.25
67641;SHT31;54434;50.096;20.082;2022-12-18T01:50:45;-3.37;80.38
67641;SHT31;54434;50.096;20.082;2022-12-18T01:53:22;-3.35;80.31
67641;SHT31;54434;50.096;20.082;2022-12-18T01:55:59;-3.36;80.22
67641;SHT31;54434;50.096;20.082;2022-12-18T01:58:39;-3.35;80.25
67641;SHT31;54434;50.096;20.082;2022-12-18T02:01:23;-3.34;80.30
67641;SHT31;54434;50.096;20.082;2022-12-18T02:04:21;-3.31;80.28
67641;SHT31;54434;50.096;20.082;2022-12-18T02:07:02;-3.30;80.20
67641;SHT31;54434;50.096;20.082;2022-12-18T02:09:50;-3.29;80.22
67641;SHT31;54434;50.096;20.082;2022-12-18T02:12:35;-3.28;80.27
67641;SHT31;54434;50.096;20.082;2022-12-18T02:15:24;-3.25;80.21
67641;SHT31;54434;50.096;20.082;2022-12-18T02:18:10;-3.25;80.05
67641;SHT31;54434;50.096;20.082;2022-12-18T02:20:55;-3.26;80.10
67641;SHT31;54434;50.096;20.082;2022-12-18T02:23:49;-3.27;80.10
67641;SHT31;54434;50.096;20.082;2022-12-18T02:26:38;-3.25;79.99
67641;SHT31;54434;50.096;20.082;2022-12-18T02:29:22;-3.23;79.88
67641;SHT31;54434;50.096;20.082;2022-12-18T02:32:02;-3.22;79.88
67641;SHT31;54434;50.096;20.082;2022-12-18T02:34:46;-3.21;79.83
67641;SHT31;54434;50.096;20.082;2022-12-18T02:37:26;-3.19;79.74
67641;SHT31;54434;50.096;20.082;2022-12-18T02:40:08;-3.19;79.66
67641;SHT31;54434;50.096;20.082;2022-12-18T02:42:46;-3.19;79.59
67641;SHT31;54434;50.096;20.082;2022-12-18T02:45:22;-3.18;79.60
67641;SHT31;54434;50.096;20.082;2022-12-18T02:47:58;-3.18;79.51
67641;SHT31;54434;50.096;20.082;2022-12-18T02:50:37;-3.20;79.49
67641;SHT31;54434;50.096;20.082;2022-12-18T02:53:27;-3.22;79.39
67641;SHT31;54434;50.096;20.082;2022-12-18T02:56:13;-3.22;79.40
67641;SHT31;54434;50.096;20.082;2022-12-18T02:58:56;-3.22;79.24
67641;SHT31;54434;50.096;20.082;2022-12-18T03:01:48;-3.21;79.36
67641;SHT31;54434;50.096;20.082;2022-12-18T03:04:33;-3.20;79.40
67641;SHT31;54434;50.096;20.082;2022-12-18T03:07:23;-3.18;79.38
67641;SHT31;54434;50.096;20.082;2022-12-18T03:10:14;-3.19;79.30
67641;SHT31;54434;50.096;20.082;2022-12-18T03:12:58;-3.18;79.29
67641;SHT31;54434;50.096;20.082;2022-12-18T03:15:40;-3.18;79.30
67641;SHT31;54434;50.096;20.082;2022-12-18T03:18:22;-3.18;79.38
67641;SHT31;54434;50.096;20.082;2022-12-18T03:21:05;-3.20;79.38
67641;SHT31;54434;50.096;20.082;2022-12-18T03:23:44;-3.19;79.51
67641;SHT31;54434;50.096;20.082;2022-12-18T03:26:25;-3.18;79.55
67641;SHT31;54434;50.096;20.082;2022-12-18T03:29:06;-3.18;79.62
67641;SHT31;54434;50.096;20.082;2022-12-18T03:31:47;-3.17;79.60
67641;SHT31;54434;50.096;20.082;2022-12-18T03:34:31;-3.16;79.65
67641;SHT31;54434;50.096;20.082;2022-12-18T03:37:11;-3.15;79.67
67641;SHT31;54434;50.096;20.082;2022-12-18T03:39:48;-3.14;79.69
67641;SHT31;54434;50.096;20.082;2022-12-18T03:42:27;-3.16;79.83
67641;SHT31;54434;50.096;20.082;2022-12-18T03:45:16;-3.18;80.14
67641;SHT31;54434;50.096;20.082;2022-12-18T03:48:02;-3.20;80.33
67641;SHT31;54434;50.096;20.082;2022-12-18T03:50:48;-3.25;80.62
67641;SHT31;54434;50.096;20.082;2022-12-18T03:53:36;-3.25;80.76
67641;SHT31;54434;50.096;20.082;2022-12-18T03:56:23;-3.28;80.84
67641;SHT31;54434;50.096;20.082;2022-12-18T03:59:04;-3.27;80.88
67641;SHT31;54434;50.096;20.082;2022-12-18T04:01:45;-3.27;80.85
67641;SHT31;54434;50.096;20.082;2022-12-18T04:04:25;-3.27;80.85
67641;SHT31;54434;50.096;20.082;2022-12-18T04:07:07;-3.26;80.97
67641;SHT31;54434;50.096;20.082;2022-12-18T04:09:47;-3.25;81.04
67641;SHT31;54434;50.096;20.082;2022-12-18T04:12:28;-3.27;81.10
67641;SHT31;54434;50.096;20.082;2022-12-18T04:15:06;-3.26;81.22
67641;SHT31;54434;50.096;20.082;2022-12-18T04:17:46;-3.24;81.31
67641;SHT31;54434;50.096;20.082;2022-12-18T04:20:26;-3.27;81.38
67641;SHT31;54434;50.096;20.082;2022-12-18T04:23:02;-3.27;81.50
67641;SHT31;54434;50.096;20.082;2022-12-18T04:25:38;-3.26;81.57
67641;SHT31;54434;50.096;20.082;2022-12-18T04:28:18;-3.23;81.60
67641;SHT31;54434;50.096;20.082;2022-12-18T04:30:54;-3.25;81.69
67641;SHT31;54434;50.096;20.082;2022-12-18T04:33:31;-3.24;81.70
67641;SHT31;54434;50.096;20.082;2022-12-18T04:36:08;-3.23;81.70
67641;SHT31;54434;50.096;20.082;2022-12-18T04:38:45;-3.24;81.75
67641;SHT31;54434;50.096;20.082;2022-12-18T04:41:21;-3.23;81.80
67641;SHT31;54434;50.096;20.082;2022-12-18T04:43:57;-3.23;81.74
67641;SHT31;54434;50.096;20.082;2022-12-18T04:46:33;-3.23;81.72
67641;SHT31;54434;50.096;20.082;2022-12-18T04:49:09;-3.25;81.64
67641;SHT31;54434;50.096;20.082;2022-12-18T04:51:45;-3.29;81.75
67641;SHT31;54434;50.096;20.082;2022-12-18T04:54:22;-3.31;81.87
67641;SHT31;54434;50.096;20.082;2022-12-18T04:56:58;-3.31;81.90
67641;SHT31;54434;50.096;20.082;2022-12-18T04:59:34;-3.34;81.90
67641;SHT31;54434;50.096;20.082;2022-12-18T05:02:10;-3.36;82.01
67641;SHT31;54434;50.096;20.082;2022-12-18T05:04:46;-3.38;82.06
67641;SHT31;54434;50.096;20.082;2022-12-18T05:07:22;-3.38;82.12
67641;SHT31;54434;50.096;20.082;2022-12-18T05:09:58;-3.37;82.14
67641;SHT31;54434;50.096;20.082;2022-12-18T05:12:36;-3.38;82.14
67641;SHT31;54434;50.096;20.082;2022-12-18T05:15:27;-3.37;82.19
67641;SHT31;54434;50.096;20.082;2022-12-18T05:18:05;-3.37;82.15
67641;SHT31;54434;50.096;20.082;2022-12-18T05:20:41;-3.35;82.11
67641;SHT31;54434;50.096;20.082;2022-12-18T05:23:17;-3.38;82.19
67641;SHT31;54434;50.096;20.082;2022-12-18T05:25:56;-3.38;82.15
67641;SHT31;54434;50.096;20.082;2022-12-18T05:28:35;-3.40;82.09
67641;SHT31;54434;50.096;20.082;2022-12-18T05:31:11;-3.40;82.10
67641;SHT31;54434;50.096;20.082;2022-12-18T05:33:50;-3.41;82.11
67641;SHT31;54434;50.096;20.082;2022-12-18T05:36:26;-3.43;82.19
67641;SHT31;54434;50.096;20.082;2022-12-18T05:39:02;-3.42;82.20
67641;SHT31;54434;50.096;20.082;2022-12-18T05:41:39;-3.42;82.20
67641;SHT31;54434;50.096;20.082;2022-12-18T05:44:15;-3.42;82.23
67641;SHT31;54434;50.096;20.082;2022-12-18T05:46:51;-3.44;82.24
67641;SHT31;54434;50.096;20.082;2022-12-18T05:49:27;-3.44;82.23
67641;SHT31;54434;50.096;20.082;2022-12-18T05:52:03;-3.45;82.29
67641;SHT31;54434;50.096;20.082;2022-12-18T05:54:40;-3.45;82.26
67641;SHT31;54434;50.096;20.082;2022-12-18T05:57:16;-3.44;82.21
67641;SHT31;54434;50.096;20.082;2022-12-18T05:59:52;-3.44;82.14
67641;SHT31;54434;50.096;20.082;2022-12-18T06:02:28;-3.44;82.10
67641;SHT31;54434;50.096;20.082;2022-12-18T06:05:05;-3.47;82.10
67641;SHT31;54434;50.096;20.082;2022-12-18T06:07:42;-3.49;82.11
67641;SHT31;54434;50.096;20.082;2022-12-18T06:10:18;-3.51;82.18
67641;SHT31;54434;50.096;20.082;2022-12-18T06:12:54;-3.51;82.20
67641;SHT31;54434;50.096;20.082;2022-12-18T06:15:30;-3.52;82.20
67641;SHT31;54434;50.096;20.082;2022-12-18T06:18:08;-3.53;82.25
67641;SHT31;54434;50.096;20.082;2022-12-18T06:20:44;-3.55;82.31
67641;SHT31;54434;50.096;20.082;2022-12-18T06:23:28;-3.58;82.38
67641;SHT31;54434;50.096;20.082;2022-12-18T06:26:07;-3.57;82.40
67641;SHT31;54434;50.096;20.082;2022-12-18T06:28:45;-3.56;82.38
67641;SHT31;54434;50.096;20.082;2022-12-18T06:31:21;-3.55;82.34
67641;SHT31;54434;50.096;20.082;2022-12-18T06:33:57;-3.57;82.39
67641;SHT31;54434;50.096;20.082;2022-12-18T06:36:36;-3.54;82.40
67641;SHT31;54434;50.096;20.082;2022-12-18T06:39:12;-3.52;82.36
67641;SHT31;54434;50.096;20.082;2022-12-18T06:41:48;-3.52;82.38
67641;SHT31;54434;50.096;20.082;2022-12-18T06:44:24;-3.50;82.35
67641;SHT31;54434;50.096;20.082;2022-12-18T06:47:00;-3.51;82.31
67641;SHT31;54434;50.096;20.082;2022-12-18T06:49:36;-3.49;82.29
67641;SHT31;54434;50.096;20.082;2022-12-18T06:52:12;-3.48;82.30
67641;SHT31;54434;50.096;20.082;2022-12-18T06:54:48;-3.47;82.36
67641;SHT31;54434;50.096;20.082;2022-12-18T06:57:24;-3.46;82.23
67641;SHT31;54434;50.096;20.082;2022-12-18T07:00:00;-3.44;82.23
67641;SHT31;54434;50.096;20.082;2022-12-18T07:02:39;-3.44;82.17
67641;SHT31;54434;50.096;20.082;2022-12-18T07:05:15;-3.43;82.20
67641;SHT31;54434;50.096;20.082;2022-12-18T07:07:51;-3.40;82.17
67641;SHT31;54434;50.096;20.082;2022-12-18T07:10:27;-3.37;82.17
67641;SHT31;54434;50.096;20.082;2022-12-18T07:13:03;-3.33;82.04
67641;SHT31;54434;50.096;20.082;2022-12-18T07:15:39;-3.31;82.00
67641;SHT31;54434;50.096;20.082;2022-12-18T07:18:15;-3.30;81.90
67641;SHT31;54434;50.096;20.082;2022-12-18T07:20:51;-3.26;81.76
67641;SHT31;54434;50.096;20.082;2022-12-18T07:23:27;-3.24;81.72
67641;SHT31;54434;50.096;20.082;2022-12-18T07:26:05;-3.19;81.78
67641;SHT31;54434;50.096;20.082;2022-12-18T07:28:43;-3.17;81.69
67641;SHT31;54434;50.096;20.082;2022-12-18T07:31:21;-3.13;81.57
67641;SHT31;54434;50.096;20.082;2022-12-18T07:33:58;-3.10;81.49
67641;SHT31;54434;50.096;20.082;2022-12-18T07:36:34;-3.05;81.34
67641;SHT31;54434;50.096;20.082;2022-12-18T07:39:11;-3.01;81.31
67641;SHT31;54434;50.096;20.082;2022-12-18T07:41:48;-2.95;81.20
67641;SHT31;54434;50.096;20.082;2022-12-18T07:44:37;-2.92;81.04
67641;SHT31;54434;50.096;20.082;2022-12-18T07:47:13;-2.91;80.90
67641;SHT31;54434;50.096;20.082;2022-12-18T07:49:49;-2.84;80.96
67641;SHT31;54434;50.096;20.082;2022-12-18T07:52:26;-2.76;80.86
67641;SHT31;54434;50.096;20.082;2022-12-18T07:55:02;-2.66;80.80
67641;SHT31;54434;50.096;20.082;2022-12-18T07:57:39;-2.58;80.79
67641;SHT31;54434;50.096;20.082;2022-12-18T08:00:26;-2.53;80.49
67641;SHT31;54434;50.096;20.082;2022-12-18T08:03:03;-2.44;80.37
67641;SHT31;54434;50.096;20.082;2022-12-18T08:05:39;-2.38;80.30
67641;SHT31;54434;50.096;20.082;2022-12-18T08:08:15;-2.33;80.09
67641;SHT31;54434;50.096;20.082;2022-12-18T08:10:51;-2.25;79.96
67641;SHT31;54434;50.096;20.082;2022-12-18T08:13:27;-2.19;79.76
67641;SHT31;54434;50.096;20.082;2022-12-18T08:16:05;-2.16;79.56
67641;SHT31;54434;50.096;20.082;2022-12-18T08:18:42;-2.12;79.37
67641;SHT31;54434;50.096;20.082;2022-12-18T08:21:19;-2.06;79.21
67641;SHT31;54434;50.096;20.082;2022-12-18T08:23:59;-2.00;79.06
67641;SHT31;54434;50.096;20.082;2022-12-18T08:26:35;-1.95;78.93
67641;SHT31;54434;50.096;20.082;2022-12-18T08:29:11;-1.89;78.88
67641;SHT31;54434;50.096;20.082;2022-12-18T08:31:52;-1.80;78.70
67641;SHT31;54434;50.096;20.082;2022-12-18T08:34:27;-1.73;78.47
67641;SHT31;54434;50.096;20.082;2022-12-18T08:37:04;-1.67;78.13
67641;SHT31;54434;50.096;20.082;2022-12-18T08:39:40;-1.65;77.94
67641;SHT31;54434;50.096;20.082;2022-12-18T08:42:16;-1.62;77.86
67641;SHT31;54434;50.096;20.082;2022-12-18T08:45:10;-1.60;77.62
67641;SHT31;54434;50.096;20.082;2022-12-18T08:47:46;-1.54;77.70
67641;SHT31;54434;50.096;20.082;2022-12-18T08:50:22;-1.47;77.35
67641;SHT31;54434;50.096;20.082;2022-12-18T08:52:58;-1.45;77.02
67641;SHT31;54434;50.096;20.082;2022-12-18T08:55:35;-1.47;76.89
67641;SHT31;54434;50.096;20.082;2022-12-18T08:58:13;-1.43;77.03
67641;SHT31;54434;50.096;20.082;2022-12-18T09:00:49;-1.37;76.85
67641;SHT31;54434;50.096;20.082;2022-12-18T09:03:26;-1.37;76.30
67641;SHT31;54434;50.096;20.082;2022-12-18T09:06:02;-1.37;76.45
67641;SHT31;54434;50.096;20.082;2022-12-18T09:08:39;-1.34;76.39
67641;SHT31;54434;50.096;20.082;2022-12-18T09:11:21;-1.29;76.28
67641;SHT31;54434;50.096;20.082;2022-12-18T09:14:00;-1.21;76.21
67641;SHT31;54434;50.096;20.082;2022-12-18T09:16:37;-1.16;75.98
67641;SHT31;54434;50.096;20.082;2022-12-18T09:19:14;-1.14;75.92
67641;SHT31;54434;50.096;20.082;2022-12-18T09:21:50;-1.13;75.73
67641;SHT31;54434;50.096;20.082;2022-12-18T09:24:26;-1.13;75.47
67641;SHT31;54434;50.096;20.082;2022-12-18T09:27:02;-1.12;75.41
67641;SHT31;54434;50.096;20.082;2022-12-18T09:29:39;-1.13;75.25
67641;SHT31;54434;50.096;20.082;2022-12-18T09:32:15;-1.10;75.21
67641;SHT31;54434;50.096;20.082;2022-12-18T09:34:53;-1.08;74.90
67641;SHT31;54434;50.096;20.082;2022-12-18T09:37:29;-1.01;74.77
67641;SHT31;54434;50.096;20.082;2022-12-18T09:40:12;-0.94;74.49
67641;SHT31;54434;50.096;20.082;2022-12-18T09:42:51;-0.89;74.35
67641;SHT31;54434;50.096;20.082;2022-12-18T09:45:37;-0.94;74.19
67641;SHT31;54434;50.096;20.082;2022-12-18T09:48:21;-0.99;73.98
67641;SHT31;54434;50.096;20.082;2022-12-18T09:51:05;-1.03;74.21
67641;SHT31;54434;50.096;20.082;2022-12-18T09:53:50;-1.04;74.09
67641;SHT31;54434;50.096;20.082;2022-12-18T09:56:37;-1.07;74.11
67641;SHT31;54434;50.096;20.082;2022-12-18T09:59:21;-1.13;73.91
67641;SHT31;54434;50.096;20.082;2022-12-18T10:02:17;-1.24;73.76
67641;SHT31;54434;50.096;20.082;2022-12-18T10:05:05;-1.33;73.93
67641;SHT31;54434;50.096;20.082;2022-12-18T10:07:49;-1.39;74.07
67641;SHT31;54434;50.096;20.082;2022-12-18T10:10:39;-1.49;73.98
67641;SHT31;54434;50.096;20.082;2022-12-18T10:13:25;-1.55;73.88
67641;SHT31;54434;50.096;20.082;2022-12-18T10:16:14;-1.63;74.05
67641;SHT31;54434;50.096;20.082;2022-12-18T10:19:09;-1.67;74.24
67641;SHT31;54434;50.096;20.082;2022-12-18T10:22:18;-1.70;74.46
67641;SHT31;54434;50.096;20.082;2022-12-18T10:25:13;-1.72;74.42
67641;SHT31;54434;50.096;20.082;2022-12-18T10:28:00;-1.72;74.62
67641;SHT31;54434;50.096;20.082;2022-12-18T10:30:46;-1.62;74.71
67641;SHT31;54434;50.096;20.082;2022-12-18T10:33:23;-1.41;74.74
67641;SHT31;54434;50.096;20.082;2022-12-18T10:36:04;-1.21;74.50
67641;SHT31;54434;50.096;20.082;2022-12-18T10:38:41;-0.97;74.42
67641;SHT31;54434;50.096;20.082;2022-12-18T10:41:28;-0.77;73.98
67641;SHT31;54434;50.096;20.082;2022-12-18T10:44:17;-0.63;73.54
67641;SHT31;54434;50.096;20.082;2022-12-18T10:47:04;-0.43;73.30
67641;SHT31;54434;50.096;20.082;2022-12-18T10:49:51;-0.30;72.80
67641;SHT31;54434;50.096;20.082;2022-12-18T10:52:28;-0.17;72.63
67641;SHT31;54434;50.096;20.082;2022-12-18T10:55:15;-0.15;72.11
67641;SHT31;54434;50.096;20.082;2022-12-18T10:57:53;-0.21;71.66
67641;SHT31;54434;50.096;20.082;2022-12-18T11:01:09;-0.24;71.96
67641;SHT31;54434;50.096;20.082;2022-12-18T11:04:00;-0.26;72.14
67641;SHT31;54434;50.096;20.082;2022-12-18T11:06:57;-0.28;71.69
67641;SHT31;54434;50.096;20.082;2022-12-18T11:09:37;-0.33;71.63
67641;SHT31;54434;50.096;20.082;2022-12-18T11:12:19;-0.26;71.82
67641;SHT31;54434;50.096;20.082;2022-12-18T11:14:57;-0.23;71.27
67641;SHT31;54434;50.096;20.082;2022-12-18T11:17:33;-0.31;70.84
67641;SHT31;54434;50.096;20.082;2022-12-18T11:20:23;-0.34;71.20
67641;SHT31;54434;50.096;20.082;2022-12-18T11:23:13;-0.34;71.23
67641;SHT31;54434;50.096;20.082;2022-12-18T11:25:57;-0.40;70.98
67641;SHT31;54434;50.096;20.082;2022-12-18T11:28:38;-0.52;70.84
67641;SHT31;54434;50.096;20.082;2022-12-18T11:31:24;-0.65;71.22
67641;SHT31;54434;50.096;20.082;2022-12-18T11:34:05;-0.71;71.12
67641;SHT31;54434;50.096;20.082;2022-12-18T11:37:04;-0.85;70.93
67641;SHT31;54434;50.096;20.082;2022-12-18T11:39:44;-1.03;71.21
67641;SHT31;54434;50.096;20.082;2022-12-18T11:42:27;-1.22;71.64
67641;SHT31;54434;50.096;20.082;2022-12-18T11:45:25;-1.35;71.95
67641;SHT31;54434;50.096;20.082;2022-12-18T11:48:12;-1.45;72.19
67641;SHT31;54434;50.096;20.082;2022-12-18T11:50:54;-1.52;72.36
67641;SHT31;54434;50.096;20.082;2022-12-18T11:53:32;-1.57;72.32
67641;SHT31;54434;50.096;20.082;2022-12-18T11:56:22;-1.62;72.32
67641;SHT31;54434;50.096;20.082;2022-12-18T11:59:09;-1.73;72.58
67641;SHT31;54434;50.096;20.082;2022-12-18T12:02:13;-1.78;72.91
67641;SHT31;54434;50.096;20.082;2022-12-18T12:05:27;-1.81;73.07
67641;SHT31;54434;50.096;20.082;2022-12-18T12:08:21;-1.85;73.03
67641;SHT31;54434;50.096;20.082;2022-12-18T12:11:12;-1.85;73.20
67641;SHT31;54434;50.096;20.082;2022-12-18T12:14:09;-1.87;73.02
67641;SHT31;54434;50.096;20.082;2022-12-18T12:17:05;-1.95;72.94
67641;SHT31;54434;50.096;20.082;2022-12-18T12:19:56;-2.03;73.04
67641;SHT31;54434;50.096;20.082;2022-12-18T12:22:44;-2.06;73.12
67641;SHT31;54434;50.096;20.082;2022-12-18T12:25:35;-2.08;73.22
67641;SHT31;54434;50.096;20.082;2022-12-18T12:28:35;-2.10;72.97
67641;SHT31;54434;50.096;20.082;2022-12-18T12:31:37;-2.18;72.98
67641;SHT31;54434;50.096;20.082;2022-12-18T12:34:33;-2.19;73.03
67641;SHT31;54434;50.096;20.082;2022-12-18T12:37:23;-2.21;72.76
67641;SHT31;54434;50.096;20.082;2022-12-18T12:40:13;-2.22;73.03
67641;SHT31;54434;50.096;20.082;2022-12-18T12:43:22;-2.21;72.74
67641;SHT31;54434;50.096;20.082;2022-12-18T12:46:14;-2.24;72.97
67641;SHT31;54434;50.096;20.082;2022-12-18T12:48:56;-2.31;72.87
67641;SHT31;54434;50.096;20.082;2022-12-18T12:51:38;-2.33;72.93
67641;SHT31;54434;50.096;20.082;2022-12-18T12:54:21;-2.33;72.99
67641;SHT31;54434;50.096;20.082;2022-12-18T12:56:59;-2.35;73.17
67641;SHT31;54434;50.096;20.082;2022-12-18T12:59:48;-2.36;73.07
67641;SHT31;54434;50.096;20.082;2022-12-18T13:02:39;-2.37;73.01
67641;SHT31;54434;50.096;20.082;2022-12-18T13:05:25;-2.40;73.00
67641;SHT31;54434;50.096;20.082;2022-12-18T13:08:22;-2.42;73.00
67641;SHT31;54434;50.096;20.082;2022-12-18T13:11:12;-2.41;72.98
67641;SHT31;54434;50.096;20.082;2022-12-18T13:14:32;-2.44;72.97
67641;SHT31;54434;50.096;20.082;2022-12-18T13:17:28;-2.48;72.97
67641;SHT31;54434;50.096;20.082;2022-12-18T13:20:10;-2.52;72.71
67641;SHT31;54434;50.096;20.082;2022-12-18T13:22:49;-2.79;72.36
67641;SHT31;54434;50.096;20.082;2022-12-18T13:25:32;-2.99;73.10
67641;SHT31;54434;50.096;20.082;2022-12-18T13:28:12;-3.07;73.62
67641;SHT31;54434;50.096;20.082;2022-12-18T13:30:54;-3.09;73.85
67641;SHT31;54434;50.096;20.082;2022-12-18T13:33:40;-3.10;73.93
67641;SHT31;54434;50.096;20.082;2022-12-18T13:36:38;-3.22;73.49
67641;SHT31;54434;50.096;20.082;2022-12-18T13:39:32;-3.35;73.72
67641;SHT31;54434;50.096;20.082;2022-12-18T13:45:47;-3.59;73.47
67641;SHT31;54434;50.096;20.082;2022-12-18T13:48:35;-3.69;73.69
67641;SHT31;54434;50.096;20.082;2022-12-18T13:51:22;-3.80;73.76
67641;SHT31;54434;50.096;20.082;2022-12-18T13:54:00;-3.90;73.85
67641;SHT31;54434;50.096;20.082;2022-12-18T13:56:50;-3.96;74.12
67641;SHT31;54434;50.096;20.082;2022-12-18T13:59:26;-4.15;73.50
67641;SHT31;54434;50.096;20.082;2022-12-18T14:02:14;-4.42;73.41
67641;SHT31;54434;50.096;20.082;2022-12-18T14:04:54;-4.62;74.09
67641;SHT31;54434;50.096;20.082;2022-12-18T14:07:30;-4.64;74.97
67641;SHT31;54434;50.096;20.082;2022-12-18T14:10:16;-4.70;75.05
67641;SHT31;54434;50.096;20.082;2022-12-18T14:13:17;-4.85;74.73
67641;SHT31;54434;50.096;20.082;2022-12-18T14:16:01;-4.95;74.93
67641;SHT31;54434;50.096;20.082;2022-12-18T14:18:43;-5.11;74.60
67641;SHT31;54434;50.096;20.082;2022-12-18T14:21:32;-5.32;74.62
67641;SHT31;54434;50.096;20.082;2022-12-18T14:24:16;-5.59;74.63
67641;SHT31;54434;50.096;20.082;2022-12-18T14:26:54;-5.90;74.82
67641;SHT31;54434;50.096;20.082;2022-12-18T14:29:53;-6.11;75.39
67641;SHT31;54434;50.096;20.082;2022-12-18T14:32:29;-6.26;75.47
67641;SHT31;54434;50.096;20.082;2022-12-18T14:35:14;-6.45;75.18
67641;SHT31;54434;50.096;20.082;2022-12-18T14:37:52;-6.66;74.76
67641;SHT31;54434;50.096;20.082;2022-12-18T14:40:54;-6.85;75.05
67641;SHT31;54434;50.096;20.082;2022-12-18T14:43:35;-7.06;74.91
67641;SHT31;54434;50.096;20.082;2022-12-18T14:46:32;-7.27;75.06
67641;SHT31;54434;50.096;20.082;2022-12-18T14:49:23;-7.48;75.02
67641;SHT31;54434;50.096;20.082;2022-12-18T14:52:05;-7.65;75.30
67641;SHT31;54434;50.096;20.082;2022-12-18T14:55:02;-7.84;75.56
67641;SHT31;54434;50.096;20.082;2022-12-18T14:57:47;-7.96;76.18
67641;SHT31;54434;50.096;20.082;2022-12-18T15:00:27;-8.05;76.76
67641;SHT31;54434;50.096;20.082;2022-12-18T15:03:05;-8.16;76.66
67641;SHT31;54434;50.096;20.082;2022-12-18T15:05:46;-8.27;77.12
67641;SHT31;54434;50.096;20.082;2022-12-18T15:08:35;-8.34;77.51
67641;SHT31;54434;50.096;20.082;2022-12-18T15:14:33;-8.58;78.03
67641;SHT31;54434;50.096;20.082;2022-12-18T15:17:18;-8.66;78.50
67641;SHT31;54434;50.096;20.082;2022-12-18T15:20:02;-8.78;78.09
67641;SHT31;54434;50.096;20.082;2022-12-18T15:22:46;-8.93;77.93
67641;SHT31;54434;50.096;20.082;2022-12-18T15:25:27;-9.00;78.08
67641;SHT31;54434;50.096;20.082;2022-12-18T15:28:18;-9.06;78.38
67641;SHT31;54434;50.096;20.082;2022-12-18T15:31:06;-9.15;78.56
67641;SHT31;54434;50.096;20.082;2022-12-18T15:34:12;-9.23;78.74
67641;SHT31;54434;50.096;20.082;2022-12-18T15:36:54;-9.31;79.18
67641;SHT31;54434;50.096;20.082;2022-12-18T15:39:30;-9.31;79.76
67641;SHT31;54434;50.096;20.082;2022-12-18T15:42:09;-9.37;79.73
67641;SHT31;54434;50.096;20.082;2022-12-18T15:45:04;-9.39;80.00
67641;SHT31;54434;50.096;20.082;2022-12-18T15:47:45;-9.44;80.09
67641;SHT31;54434;50.096;20.082;2022-12-18T15:50:21;-9.47;80.32
67641;SHT31;54434;50.096;20.082;2022-12-18T15:52:59;-9.51;80.52
67641;SHT31;54434;50.096;20.082;2022-12-18T15:55:36;-9.52;80.74
67641;SHT31;54434;50.096;20.082;2022-12-18T15:58:31;-9.57;80.53
67641;SHT31;54434;50.096;20.082;2022-12-18T16:01:09;-9.62;80.48
67641;SHT31;54434;50.096;20.082;2022-12-18T16:03:45;-9.66;80.59
67641;SHT31;54434;50.096;20.082;2022-12-18T16:06:22;-9.70;80.80
67641;SHT31;54434;50.096;20.082;2022-12-18T16:09:15;-9.73;81.20
67641;SHT31;54434;50.096;20.082;2022-12-18T16:11:56;-9.76;81.36
67641;SHT31;54434;50.096;20.082;2022-12-18T16:14:33;-9.76;81.56
67641;SHT31;54434;50.096;20.082;2022-12-18T16:17:11;-9.81;81.56
67641;SHT31;54434;50.096;20.082;2022-12-18T16:19:48;-9.85;81.47
67641;SHT31;54434;50.096;20.082;2022-12-18T16:22:27;-9.85;81.67
67641;SHT31;54434;50.096;20.082;2022-12-18T16:25:05;-9.86;81.75
67641;SHT31;54434;50.096;20.082;2022-12-18T16:27:48;-9.88;81.94
67641;SHT31;54434;50.096;20.082;2022-12-18T16:30:28;-9.90;81.98
67641;SHT31;54434;50.096;20.082;2022-12-18T16:33:09;-9.89;82.14
67641;SHT31;54434;50.096;20.082;2022-12-18T16:35:53;-9.91;81.88
67641;SHT31;54434;50.096;20.082;2022-12-18T16:38:29;-9.93;81.80
67641;SHT31;54434;50.096;20.082;2022-12-18T16:41:17;-9.97;81.87
67641;SHT31;54434;50.096;20.082;2022-12-18T16:44:07;-10.01;81.95
67641;SHT31;54434;50.096;20.082;2022-12-18T16:46:44;-10.03;81.85
67641;SHT31;54434;50.096;20.082;2022-12-18T16:49:20;-10.05;81.97
67641;SHT31;54434;50.096;20.082;2022-12-18T16:51:57;-10.07;82.00